createdAt,value
2023-01-20T00:01:16.506Z,100359.16
2023-01-20T00:03:45.842Z,100355.91
2023-01-20T00:06:12.497Z,100350.03
2023-01-20T00:08:38.790Z,100353.16
2023-01-20T00:11:08.924Z,100356.22
2023-01-20T00:13:35.728Z,100358.97
2023-01-20T00:16:03.072Z,100356.22
2023-01-20T00:18:30.196Z,100363.41
2023-01-20T00:20:56.550Z,100364.22
2023-01-20T00:23:23.851Z,100365.03
2023-01-20T00:25:50.300Z,100372.16
2023-01-20T00:28:17.052Z,100368.59
2023-01-20T00:30:44.527Z,100383.72
2023-01-20T00:33:11.884Z,100372.66
2023-01-20T00:35:38.856Z,100377.88
2023-01-20T00:38:05.202Z,100379.50
2023-01-20T00:40:31.630Z,100380.28
2023-01-20T00:42:57.933Z,100384.69
2023-01-20T00:45:24.173Z,100381.91
2023-01-20T00:47:50.425Z,100384.38
2023-01-20T00:50:17.991Z,100389.06
2023-01-20T00:52:44.273Z,100386.63
2023-01-20T00:55:10.648Z,100390.06
2023-01-20T00:57:37.063Z,100384.69
2023-01-20T01:00:04.026Z,100384.84
2023-01-20T01:02:30.506Z,100392.19
2023-01-20T01:04:56.848Z,100376.06
2023-01-20T01:07:23.228Z,100388.91
2023-01-20T01:09:50.459Z,100389.06
2023-01-20T01:12:16.725Z,100391.19
2023-01-20T01:14:43.127Z,100389.06
2023-01-20T01:17:09.404Z,100393.63
2023-01-20T01:19:35.664Z,100398.66
2023-01-20T01:22:02.080Z,100407.28
2023-01-20T01:24:28.359Z,100402.09
2023-01-20T01:26:54.656Z,100411.47
2023-01-20T01:29:21.199Z,100417.00
2023-01-20T01:31:47.536Z,100414.25
2023-01-20T01:34:14.188Z,100424.19
2023-01-20T01:36:40.427Z,100421.91
2023-01-20T01:39:06.897Z,100429.22
2023-01-20T01:41:33.139Z,100428.91
2023-01-20T01:44:09.766Z,100425.84
2023-01-20T01:46:36.417Z,100441.44
2023-01-20T01:49:11.840Z,100433.63
2023-01-20T01:51:41.532Z,100439.34
2023-01-20T01:54:15.224Z,100442.91
2023-01-20T01:56:43.332Z,100438.69
2023-01-20T01:59:11.745Z,100441.94
2023-01-20T02:01:39.546Z,100440.81
2023-01-20T02:04:09.249Z,100441.63
2023-01-20T02:06:38.333Z,100441.94
2023-01-20T02:09:07.100Z,100435.28
2023-01-20T02:11:38.867Z,100436.41
2023-01-20T02:14:05.611Z,100441.94
2023-01-20T02:16:35.808Z,100443.91
2023-01-20T02:19:08.264Z,100444.53
2023-01-20T02:21:35.572Z,100450.41
2023-01-20T02:24:14.194Z,100447.94
2023-01-20T02:26:53.658Z,100455.41
2023-01-20T02:29:43.017Z,100453.78
2023-01-20T02:32:27.471Z,100458.50
2023-01-20T02:34:58.726Z,100464.38
2023-01-20T02:37:27.543Z,100461.75
2023-01-20T02:39:58.582Z,100471.50
2023-01-20T02:42:40.818Z,100472.47
2023-01-20T02:45:10.201Z,100460.75
2023-01-20T02:47:43.161Z,100472.75
2023-01-20T02:50:22.780Z,100480.06
2023-01-20T02:52:51.411Z,100476.28
2023-01-20T02:55:23.001Z,100486.06
2023-01-20T02:57:54.519Z,100485.25
2023-01-20T03:00:23.073Z,100488.31
2023-01-20T03:02:51.195Z,100485.53
2023-01-20T03:05:20.422Z,100489.44
2023-01-20T03:07:48.362Z,100485.88
2023-01-20T03:10:19.001Z,100490.25
2023-01-20T03:12:57.133Z,100488.31
2023-01-20T03:15:35.820Z,100489.13
2023-01-20T03:18:02.094Z,100489.97
2023-01-20T03:20:28.359Z,100501.50
2023-01-20T03:22:55.974Z,100502.81
2023-01-20T03:25:23.039Z,100503.63
2023-01-20T03:27:49.296Z,100501.69
2023-01-20T03:30:16.347Z,100510.44
2023-01-20T03:32:47.362Z,100499.06
2023-01-20T03:35:17.545Z,100507.34
2023-01-20T03:37:44.511Z,100509.81
2023-01-20T03:40:11.964Z,100509.00
2023-01-20T03:42:57.284Z,100515.34
2023-01-20T03:45:35.627Z,100512.59
2023-01-20T03:48:21.824Z,100521.69
2023-01-20T03:51:00.256Z,100519.72
2023-01-20T03:53:47.555Z,100522.97
2023-01-20T03:56:52.579Z,100517.16
2023-01-20T03:59:20.304Z,100516.00
2023-01-20T04:01:47.250Z,100518.44
2023-01-20T04:04:16.389Z,100517.81
2023-01-20T04:06:43.759Z,100524.16
2023-01-20T04:09:13.948Z,100520.59
2023-01-20T04:11:40.456Z,100524.63
2023-01-20T04:14:08.771Z,100525.47
2023-01-20T04:16:36.019Z,100533.78
2023-01-20T04:19:02.287Z,100528.25
2023-01-20T04:21:31.528Z,100533.78
2023-01-20T04:24:02.771Z,100534.88
2023-01-20T04:26:29.049Z,100538.47
2023-01-20T04:28:55.334Z,100537.66
2023-01-20T04:31:30.510Z,100544.84
2023-01-20T04:33:57.965Z,100536.53
2023-01-20T04:36:24.316Z,100539.31
2023-01-20T04:38:50.576Z,100542.88
2023-01-20T04:41:17.267Z,100542.88
2023-01-20T04:43:47.264Z,100540.13
2023-01-20T04:46:14.378Z,100546.44
2023-01-20T04:48:40.687Z,100547.25
2023-01-20T04:51:07.753Z,100539.78
2023-01-20T04:53:34.580Z,100544.16
2023-01-20T04:56:00.820Z,100542.53
2023-01-20T04:58:27.130Z,100552.13
2023-01-20T05:00:53.501Z,100549.06
2023-01-20T05:03:19.889Z,100559.81
2023-01-20T05:05:54.070Z,100555.91
2023-01-20T05:08:21.645Z,100561.13
2023-01-20T05:10:48.178Z,100560.78
2023-01-20T05:13:14.524Z,100569.09
2023-01-20T05:15:40.975Z,100569.41
2023-01-20T05:18:07.218Z,100575.25
2023-01-20T05:20:33.547Z,100576.72
2023-01-20T05:23:01.381Z,100570.66
2023-01-20T05:25:28.174Z,100580.91
2023-01-20T05:27:54.622Z,100579.28
2023-01-20T05:30:21.226Z,100583.53
2023-01-20T05:32:50.992Z,100588.22
2023-01-20T05:35:17.989Z,100587.09
2023-01-20T05:37:44.682Z,100591.81
2023-01-20T05:40:12.541Z,100586.28
2023-01-20T05:42:38.812Z,100593.75
2023-01-20T05:45:05.503Z,100594.56
2023-01-20T05:47:32.210Z,100590.97
2023-01-20T05:49:58.449Z,100592.13
2023-01-20T05:52:24.904Z,100605.13
2023-01-20T05:54:51.227Z,100604.31
2023-01-20T05:57:18.319Z,100605.44
2023-01-20T05:59:47.361Z,100610.66
2023-01-20T06:02:15.880Z,100627.22
2023-01-20T06:04:42.503Z,100622.03
2023-01-20T06:07:08.781Z,100627.56
2023-01-20T06:09:36.287Z,100629.81
2023-01-20T06:12:02.766Z,100627.38
2023-01-20T06:14:29.026Z,100629.94
2023-01-20T06:16:55.479Z,100633.03
2023-01-20T06:19:21.814Z,100638.06
2023-01-20T06:21:48.291Z,100636.41
2023-01-20T06:24:14.582Z,100636.75
2023-01-20T06:26:40.842Z,100638.38
2023-01-20T06:29:07.074Z,100641.13
2023-01-20T06:31:33.423Z,100648.28
2023-01-20T06:33:59.863Z,100642.75
2023-01-20T06:36:26.812Z,100643.59
2023-01-20T06:38:53.299Z,100647.97
2023-01-20T06:41:20.629Z,100646.53
2023-01-20T06:43:46.929Z,100649.00
2023-01-20T06:46:14.519Z,100652.56
2023-01-20T06:48:41.626Z,100649.47
2023-01-20T06:51:18.561Z,100647.53
2023-01-20T06:53:44.837Z,100651.91
2023-01-20T06:56:14.851Z,100656.63
2023-01-20T06:58:41.930Z,100648.34
2023-01-20T07:01:13.864Z,100655.19
2023-01-20T07:03:44.651Z,100652.91
2023-01-20T07:06:15.533Z,100649.34
2023-01-20T07:08:43.151Z,100660.91
2023-01-20T07:11:10.130Z,100658.97
2023-01-20T07:13:36.344Z,100661.72
2023-01-20T07:16:02.684Z,100662.22
2023-01-20T07:18:28.966Z,100668.88
2023-01-20T07:20:55.838Z,100673.25
2023-01-20T07:23:22.781Z,100680.41
2023-01-20T07:25:57.045Z,100682.88
2023-01-20T07:28:24.624Z,100678.97
2023-01-20T07:30:50.953Z,100681.41
2023-01-20T07:33:17.404Z,100685.53
2023-01-20T07:35:43.756Z,100697.06
2023-01-20T07:38:10.108Z,100696.44
2023-01-20T07:40:36.327Z,100692.53
2023-01-20T07:43:05.863Z,100692.22
2023-01-20T07:45:32.144Z,100691.91
2023-01-20T07:47:58.474Z,100707.38
2023-01-20T07:50:24.777Z,100707.38
2023-01-20T07:52:51.014Z,100710.41
2023-01-20T07:55:17.502Z,100715.13
2023-01-20T07:57:43.853Z,100717.59
2023-01-20T08:00:12.996Z,100720.38
2023-01-20T08:02:39.593Z,100731.44
2023-01-20T08:05:06.184Z,100727.84
2023-01-20T08:07:34.442Z,100732.25
2023-01-20T08:10:00.789Z,100731.09
2023-01-20T08:12:28.961Z,100727.53
2023-01-20T08:14:55.893Z,100731.91
2023-01-20T08:17:22.934Z,100737.44
2023-01-20T08:19:49.799Z,100739.88
2023-01-20T08:22:18.201Z,100744.31
2023-01-20T08:24:44.425Z,100749.50
2023-01-20T08:27:10.698Z,100751.94
2023-01-20T08:29:39.525Z,100756.88
2023-01-20T08:32:05.778Z,100753.78
2023-01-20T08:34:33.669Z,100759.81
2023-01-20T08:37:00.082Z,100755.91
2023-01-20T08:39:26.489Z,100759.16
2023-01-20T08:41:52.953Z,100765.22
2023-01-20T08:44:21.398Z,100764.88
2023-01-20T08:46:47.906Z,100764.56
2023-01-20T08:49:17.890Z,100773.69
2023-01-20T08:51:45.064Z,100777.28
2023-01-20T08:54:11.727Z,100778.91
2023-01-20T08:56:37.999Z,100780.53
2023-01-20T08:59:04.489Z,100772.72
2023-01-20T09:01:33.472Z,100778.78
2023-01-20T09:04:05.912Z,100791.94
2023-01-20T09:06:40.620Z,100796.06
2023-01-20T09:09:07.086Z,100791.34
2023-01-20T09:11:33.618Z,100791.00
2023-01-20T09:14:00.014Z,100797.34
2023-01-20T09:16:26.327Z,100789.03
2023-01-20T09:18:52.605Z,100795.09
2023-01-20T09:21:18.942Z,100797.88
2023-01-20T09:23:47.911Z,100793.97
2023-01-20T09:26:19.889Z,100800.00
2023-01-20T09:29:09.563Z,100805.22
2023-01-20T09:31:47.050Z,100804.56
2023-01-20T09:34:21.295Z,100812.25
2023-01-20T09:36:52.420Z,100814.69
2023-01-20T09:39:40.128Z,100813.25
2023-01-20T09:42:39.270Z,100820.72
2023-01-20T09:45:22.590Z,100823.97
2023-01-20T09:47:49.068Z,100816.50
2023-01-20T09:50:43.279Z,100817.31
2023-01-20T09:53:21.724Z,100823.34
2023-01-20T09:55:50.420Z,100821.41
2023-01-20T09:58:35.158Z,100819.13
2023-01-20T10:01:08.826Z,100818.81
2023-01-20T10:03:57.956Z,100818.16
2023-01-20T10:06:30.198Z,100819.16
2023-01-20T10:09:05.435Z,100821.31
2023-01-20T10:11:36.291Z,100821.50
2023-01-20T10:14:15.114Z,100820.53
2023-01-20T10:16:50.299Z,100823.47
2023-01-20T10:19:21.862Z,100819.44
2023-01-20T10:21:52.579Z,100819.28
2023-01-20T10:24:39.850Z,100820.78
2023-01-20T10:27:06.419Z,100825.03
2023-01-20T10:29:42.668Z,100824.06
2023-01-20T10:32:29.170Z,100820.66
2023-01-20T10:34:57.167Z,100827.19
2023-01-20T10:37:24.407Z,100826.84
2023-01-20T10:40:01.616Z,100820.97
2023-01-20T10:42:28.646Z,100823.13
2023-01-20T10:44:55.264Z,100822.44
2023-01-20T10:47:21.486Z,100824.09
2023-01-20T10:49:56.343Z,100829.03
2023-01-20T10:52:22.594Z,100820.72
2023-01-20T10:54:52.000Z,100827.56
2023-01-20T10:57:18.237Z,100836.69
2023-01-20T10:59:52.592Z,100827.56
2023-01-20T11:02:26.280Z,100828.38
2023-01-20T11:05:00.666Z,100832.78
2023-01-20T11:07:27.921Z,100830.81
2023-01-20T11:09:54.238Z,100832.78
2023-01-20T11:12:22.920Z,100837.03
2023-01-20T11:14:49.388Z,100834.56
2023-01-20T11:17:17.623Z,100843.19
2023-01-20T11:19:45.122Z,100838.78
2023-01-20T11:22:13.170Z,100842.88
2023-01-20T11:24:43.707Z,100845.34
2023-01-20T11:27:17.192Z,100848.25
2023-01-20T11:29:49.809Z,100847.97
2023-01-20T11:32:31.772Z,100847.63
2023-01-20T11:34:58.547Z,100844.84
2023-01-20T11:37:26.055Z,100838.16
2023-01-20T11:39:55.351Z,100840.94
2023-01-20T11:42:26.027Z,100854.97
2023-01-20T11:44:53.434Z,100853.50
2023-01-20T11:47:25.531Z,100854.50
2023-01-20T11:50:04.155Z,100853.50
2023-01-20T11:52:31.422Z,100855.00
2023-01-20T11:55:08.094Z,100846.53
2023-01-20T11:57:34.715Z,100850.78
2023-01-20T12:00:00.939Z,100849.47
2023-01-20T12:02:28.075Z,100853.56
2023-01-20T12:05:00.419Z,100850.44
2023-01-20T12:07:37.056Z,100853.69
2023-01-20T12:10:15.601Z,100851.44
2023-01-20T12:12:45.630Z,100859.09
2023-01-20T12:15:17.257Z,100856.81
2023-01-20T12:17:59.233Z,100856.16
2023-01-20T12:20:55.725Z,100865.31
2023-01-20T12:23:45.589Z,100856.16
2023-01-20T12:26:14.572Z,100857.47
2023-01-20T12:28:59.636Z,100862.19
2023-01-20T12:31:26.571Z,100866.94
2023-01-20T12:34:01.017Z,100870.53
2023-01-20T12:36:36.337Z,100864.63
2023-01-20T12:39:09.233Z,100869.38
2023-01-20T12:41:46.384Z,100875.75
2023-01-20T12:44:37.023Z,100876.41
2023-01-20T12:47:08.780Z,100876.22
2023-01-20T12:49:38.039Z,100875.44
2023-01-20T12:52:04.557Z,100880.16
2023-01-20T12:54:49.013Z,100876.56
2023-01-20T12:57:30.606Z,100877.38
2023-01-20T13:00:14.881Z,100874.59
2023-01-20T13:02:57.554Z,100882.59
2023-01-20T13:05:29.005Z,100885.84
2023-01-20T13:08:05.306Z,100878.66
2023-01-20T13:10:51.538Z,100883.75
2023-01-20T13:13:55.769Z,100884.38
2023-01-20T13:16:23.376Z,100889.44
2023-01-20T13:19:03.407Z,100893.34
2023-01-20T13:21:33.372Z,100886.97
2023-01-20T13:24:01.371Z,100893.34
2023-01-20T13:26:29.032Z,100895.31
2023-01-20T13:28:56.434Z,100895.00
2023-01-20T13:31:30.694Z,100895.81
2023-01-20T13:34:17.051Z,100891.41
2023-01-20T13:37:03.393Z,100889.75
2023-01-20T13:39:29.726Z,100900.03
2023-01-20T13:41:56.125Z,100902.81
2023-01-20T13:44:31.867Z,100905.91
2023-01-20T13:46:58.101Z,100905.91
2023-01-20T13:49:27.485Z,100903.97
2023-01-20T13:51:53.770Z,100911.78
2023-01-20T13:54:25.144Z,100912.59
2023-01-20T13:56:51.953Z,100917.00
2023-01-20T13:59:18.223Z,100923.38
2023-01-20T14:01:44.784Z,100923.38
2023-01-20T14:04:16.052Z,100926.94
2023-01-20T14:06:46.249Z,100934.47
2023-01-20T14:09:19.547Z,100936.41
2023-01-20T14:11:53.189Z,100932.84
2023-01-20T14:14:21.300Z,100941.16
2023-01-20T14:16:47.629Z,100940.00
2023-01-20T14:19:32.893Z,100941.97
2023-01-20T14:22:02.733Z,100943.94
2023-01-20T14:24:29.762Z,100946.53
2023-01-20T14:27:08.010Z,100955.66
2023-01-20T14:29:34.321Z,100954.03
2023-01-20T14:32:00.767Z,100956.00
2023-01-20T14:34:34.466Z,100964.31
2023-01-20T14:37:17.820Z,100960.22
2023-01-20T14:39:47.848Z,100973.25
2023-01-20T14:42:17.915Z,100974.41
2023-01-20T14:44:46.638Z,100983.34
2023-01-20T14:47:13.527Z,100987.28
2023-01-20T14:49:41.500Z,100993.97
2023-01-20T14:52:10.965Z,100997.38
2023-01-20T14:54:37.396Z,100998.84
2023-01-20T14:57:26.348Z,101000.28
2023-01-20T15:00:15.424Z,101003.72
2023-01-20T15:02:44.810Z,101007.59
2023-01-20T15:05:21.840Z,101012.66
2023-01-20T15:07:48.330Z,101020.16
2023-01-20T15:10:16.581Z,101017.72
2023-01-20T15:12:46.534Z,101023.28
2023-01-20T15:15:28.662Z,101027.16
2023-01-20T15:18:13.697Z,101031.41
2023-01-20T15:20:47.586Z,101029.25
2023-01-20T15:23:21.880Z,101037.06
2023-01-20T15:25:49.223Z,101037.69
2023-01-20T15:28:27.923Z,101046.69
2023-01-20T15:30:55.544Z,101040.94
2023-01-20T15:33:25.798Z,101039.09
2023-01-20T15:35:56.915Z,101043.63
2023-01-20T15:38:23.569Z,101052.25
2023-01-20T15:40:51.670Z,101057.28
2023-01-20T15:43:19.174Z,101059.91
2023-01-20T15:45:46.158Z,101065.25
2023-01-20T15:48:23.014Z,101075.00
2023-01-20T15:50:49.738Z,101080.84
2023-01-20T15:53:18.640Z,101082.81
2023-01-20T15:55:49.205Z,101086.72
2023-01-20T15:58:24.214Z,101090.31
2023-01-20T16:00:51.853Z,101090.59
2023-01-20T16:03:18.297Z,101095.31
2023-01-20T16:05:47.005Z,101097.59
2023-01-20T16:08:26.979Z,101101.50
2023-01-20T16:10:55.311Z,101102.94
2023-01-20T16:13:21.921Z,101105.22
2023-01-20T16:15:48.383Z,101111.69
2023-01-20T16:18:16.183Z,101113.13
2023-01-20T16:20:44.072Z,101119.31
2023-01-20T16:23:10.748Z,101121.06
2023-01-20T16:25:37.430Z,101133.88
2023-01-20T16:28:22.305Z,101129.28
2023-01-20T16:30:49.088Z,101138.97
2023-01-20T16:33:20.859Z,101141.31
2023-01-20T16:35:47.716Z,101142.56
2023-01-20T16:38:15.476Z,101150.44
2023-01-20T16:40:52.061Z,101160.53
2023-01-20T16:43:22.621Z,101160.09
2023-01-20T16:45:54.230Z,101158.88
2023-01-20T16:48:23.971Z,101169.22
2023-01-20T16:50:52.265Z,101166.06
2023-01-20T16:53:19.259Z,101176.41
2023-01-20T16:55:46.746Z,101171.56
2023-01-20T16:58:13.774Z,101183.31
2023-01-20T17:00:40.549Z,101186.19
2023-01-20T17:03:07.841Z,101191.31
2023-01-20T17:05:34.445Z,101195.47
2023-01-20T17:08:02.561Z,101201.31
2023-01-20T17:10:29.979Z,101205.22
2023-01-20T17:12:56.747Z,101214.63
2023-01-20T17:15:23.540Z,101222.06
2023-01-20T17:17:50.810Z,101223.22
2023-01-20T17:20:17.812Z,101221.25
2023-01-20T17:22:44.588Z,101229.56
2023-01-20T17:25:11.608Z,101237.84
2023-01-20T17:27:39.420Z,101240.59
2023-01-20T17:30:07.964Z,101248.63
2023-01-20T17:32:37.288Z,101248.63
2023-01-20T17:35:03.803Z,101247.50
2023-01-20T17:37:30.204Z,101255.78
2023-01-20T17:39:56.470Z,101256.59
2023-01-20T17:42:22.737Z,101257.72
2023-01-20T17:44:49.008Z,101260.78
2023-01-20T17:47:15.406Z,101263.84
2023-01-20T17:49:41.613Z,101262.31
2023-01-20T17:52:08.084Z,101264.84
2023-01-20T17:54:34.376Z,101274.84
2023-01-20T17:57:00.673Z,101272.97
2023-01-20T17:59:27.166Z,101281.66
2023-01-20T18:01:54.346Z,101289.69
2023-01-20T18:04:20.734Z,101290.06
2023-01-20T18:06:47.035Z,101285.75
2023-01-20T18:09:14.174Z,101296.00
2023-01-20T18:11:40.738Z,101295.28
2023-01-20T18:14:07.134Z,101308.03
2023-01-20T18:16:34.738Z,101320.81
2023-01-20T18:19:01.542Z,101320.88
2023-01-20T18:21:29.848Z,101325.03
2023-01-20T18:23:56.940Z,101332.25
2023-01-20T18:26:24.253Z,101326.50
2023-01-20T18:28:53.823Z,101327.41
2023-01-20T18:31:21.989Z,101330.19
2023-01-20T18:33:53.791Z,101325.56
2023-01-20T18:36:24.699Z,101335.84
2023-01-20T18:38:51.869Z,101344.47
2023-01-20T18:41:20.197Z,101341.47
2023-01-20T18:43:46.937Z,101349.50
2023-01-20T18:46:13.953Z,101356.75
2023-01-20T18:48:41.098Z,101349.34
2023-01-20T18:51:08.324Z,101352.66
2023-01-20T18:53:39.049Z,101359.88
2023-01-20T18:56:06.690Z,101360.75
2023-01-20T18:58:33.782Z,101370.72
2023-01-20T19:01:10.906Z,101370.50
2023-01-20T19:03:37.768Z,101383.72
2023-01-20T19:06:04.605Z,101380.75
2023-01-20T19:08:31.137Z,101389.59
2023-01-20T19:11:01.528Z,101392.91
2023-01-20T19:13:27.987Z,101391.84
2023-01-20T19:15:54.434Z,101394.88
2023-01-20T19:18:20.766Z,101393.00
2023-01-20T19:20:47.062Z,101395.50
2023-01-20T19:23:13.783Z,101407.13
2023-01-20T19:25:40.935Z,101409.31
2023-01-20T19:28:09.099Z,101411.03
2023-01-20T19:30:36.325Z,101415.16
2023-01-20T19:33:03.654Z,101416.53
2023-01-20T19:35:33.450Z,101418.78
2023-01-20T19:37:59.763Z,101432.84
2023-01-20T19:40:28.923Z,101436.47
2023-01-20T19:42:55.222Z,101430.38
2023-01-20T19:45:23.570Z,101435.38
2023-01-20T19:47:51.775Z,101436.75
2023-01-20T19:50:19.147Z,101441.75
2023-01-20T19:52:45.677Z,101442.84
2023-01-20T19:55:13.967Z,101452.22
2023-01-20T19:57:40.281Z,101450.03
2023-01-20T20:00:06.944Z,101452.25
2023-01-20T20:02:33.831Z,101456.91
2023-01-20T20:05:00.216Z,101463.84
2023-01-20T20:07:26.533Z,101463.56
2023-01-20T20:09:52.780Z,101478.75
2023-01-20T20:12:19.150Z,101475.44
2023-01-20T20:14:45.872Z,101483.44
2023-01-20T20:17:12.163Z,101482.06
2023-01-20T20:19:38.656Z,101480.69
2023-01-20T20:22:04.868Z,101493.13
2023-01-20T20:24:32.479Z,101501.66
2023-01-20T20:26:58.728Z,101495.59
2023-01-20T20:29:29.144Z,101500.56
2023-01-20T20:31:55.478Z,101494.50
2023-01-20T20:34:21.865Z,101498.66
2023-01-20T20:36:48.280Z,101503.34
2023-01-20T20:39:15.698Z,101505.00
2023-01-20T20:41:42.723Z,101507.19
2023-01-20T20:44:12.609Z,101521.25
2023-01-20T20:46:39.433Z,101526.22
2023-01-20T20:49:08.582Z,101528.41
2023-01-20T20:51:34.913Z,101536.13
2023-01-20T20:54:03.161Z,101533.94
2023-01-20T20:56:33.235Z,101535.03
2023-01-20T20:59:02.826Z,101545.22
2023-01-20T21:01:32.131Z,101547.16
2023-01-20T21:04:00.780Z,101551.03
2023-01-20T21:06:28.697Z,101551.28
2023-01-20T21:08:58.891Z,101561.47
2023-01-20T21:11:27.609Z,101562.56
2023-01-20T21:13:54.372Z,101567.25
2023-01-20T21:16:23.543Z,101567.81
2023-01-20T21:18:58.372Z,101567.25
2023-01-20T21:21:26.635Z,101576.63
2023-01-20T21:23:55.482Z,101583.50
2023-01-20T21:26:22.890Z,101582.97
2023-01-20T21:28:49.525Z,101595.88
2023-01-20T21:31:19.241Z,101594.50
2023-01-20T21:33:46.504Z,101595.59
2023-01-20T21:36:14.165Z,101598.59
2023-01-20T21:38:45.703Z,101605.19
2023-01-20T21:41:13.108Z,101610.97
2023-01-20T21:43:59.154Z,101609.34
2023-01-20T21:46:29.073Z,101611.53
2023-01-20T21:49:14.386Z,101613.75
2023-01-20T21:51:59.122Z,101620.34
2023-01-20T21:54:29.110Z,101620.88
2023-01-20T21:56:55.558Z,101628.59
2023-01-20T21:59:22.171Z,101631.06
2023-01-20T22:01:48.704Z,101635.75
2023-01-20T22:04:15.163Z,101641.50
2023-01-20T22:06:41.993Z,101638.19
2023-01-20T22:09:11.595Z,101643.16
2023-01-20T22:11:37.886Z,101640.94
2023-01-20T22:14:06.504Z,101645.91
2023-01-20T22:16:34.770Z,101648.91
2023-01-20T22:19:01.226Z,101657.44
2023-01-20T22:21:27.681Z,101659.63
2023-01-20T22:23:53.956Z,101671.72
2023-01-20T22:26:20.758Z,101667.31
2023-01-20T22:28:47.116Z,101669.78
2023-01-20T22:31:17.837Z,101673.94
2023-01-20T22:33:45.696Z,101675.84
2023-01-20T22:36:12.134Z,101683.28
2023-01-20T22:38:38.419Z,101689.03
2023-01-20T22:41:05.792Z,101683.00
2023-01-20T22:43:33.692Z,101697.56
2023-01-20T22:46:01.344Z,101702.25
2023-01-20T22:48:27.934Z,101693.41
2023-01-20T22:50:54.725Z,101698.91
2023-01-20T22:53:22.647Z,101706.34
2023-01-20T22:56:00.187Z,101705.28
2023-01-20T22:58:27.005Z,101712.66
2023-01-20T23:00:53.521Z,101714.59
2023-01-20T23:03:21.903Z,101720.91
2023-01-20T23:05:58.674Z,101713.78
2023-01-20T23:08:25.610Z,101726.41
2023-01-20T23:11:00.184Z,101720.09
2023-01-20T23:13:27.225Z,101729.44
2023-01-20T23:15:54.564Z,101736.03
2023-01-20T23:18:21.161Z,101732.47
2023-01-20T23:20:48.617Z,101727.25
2023-01-20T23:23:15.413Z,101733.81
2023-01-20T23:25:41.984Z,101736.03
2023-01-20T23:28:09.558Z,101728.06
2023-01-20T23:30:36.039Z,101745.63
2023-01-20T23:33:02.887Z,101745.91
2023-01-20T23:35:29.213Z,101753.31
2023-01-20T23:37:55.421Z,101751.09
2023-01-20T23:40:21.734Z,101762.91
2023-01-20T23:42:47.990Z,101767.88
2023-01-20T23:45:14.503Z,101774.47
2023-01-20T23:47:43.516Z,101771.41
2023-01-20T23:50:10.114Z,101769.78
2023-01-20T23:52:36.450Z,101781.88
2023-01-20T23:55:02.944Z,101787.88
2023-01-20T23:57:29.540Z,101783.22
2023-01-20T23:59:55.976Z,101794.47
